Buoy 50704

sailwx.info

Track history (hours):
 
Tides and Currents Weather Stations Pressure Air Temp Water Temp Dewpoint Dewpoint Depression Visibility Wind Speed Wind Dir Waves Ship Positions

Hurtle Turtle

Last reported at 2017-Dec-03 11:48 UTC. Time now 2017-Dec-12 12:41 UTC.
Position S 28°29' E 153°43'.
Warning: this ship's position is 9 days out of date.

Length 12 m.

MMSI: 503028550.

Date/timePositionNaut miles runAvg speedWind from/ knotsBaromVisibWave heightAir tempDewpointWater temp
2017-Dec-03 11:48S 28°29' E 153°43'2 7.8
2017-Dec-03 11:29S 28°27' E 153°43'4 7.3
2017-Dec-03 10:59S 28°23' E 153°42'4 7.3
2017-Dec-03 10:29S 28°20' E 153°41'4 7.3
2017-Dec-03 10:00S 28°16' E 153°40'3 6.9
2017-Dec-03 09:30S 28°13' E 153°40'3 6.0
2017-Dec-03 09:00S 28°10' E 153°39'4 7.2
2017-Dec-03 08:31S 28°07' E 153°36'4 8.4
2017-Dec-03 08:00S 28°04' E 153°33'4 8.5
2017-Dec-03 07:30S 28°00' E 153°30'4 8.4
2017-Dec-03 07:00S 27°57' E 153°28'2 4.5
2017-Dec-03 06:30S 27°56' E 153°25'1 1.1
2017-Dec-03 06:00S 27°57' E 153°25'0 0.0
2017-Dec-03 05:30S 27°57' E 153°25'0 0.0
2017-Dec-03 05:00S 27°57' E 153°25'0 0.0
2017-Dec-03 04:30S 27°57' E 153°25'0 0.0
2017-Dec-03 03:48S 27°57' E 153°25'0 0.0
2017-Dec-03 03:30S 27°57' E 153°25'0 0.0
2017-Dec-03 03:00S 27°57' E 153°25'0 0.0
2017-Dec-03 02:24S 27°57' E 153°25'0 0.0
2017-Dec-03 02:00S 27°57' E 153°25'0 0.0
2017-Dec-03 01:30S 27°57' E 153°25'0 0.0
2017-Dec-03 01:00S 27°57' E 153°25'0 0.0
2017-Dec-03 00:30S 27°57' E 153°25'0 0.0
2017-Dec-03 00:00S 27°57' E 153°25'0 0.0
2017-Dec-02 23:24S 27°57' E 153°25'0 0.0
2017-Dec-02 23:00S 27°57' E 153°25'0 0.0
2017-Dec-02 22:30S 27°57' E 153°25'0 0.0
2017-Dec-02 22:00S 27°57' E 153°25'0 0.0
2017-Dec-02 21:30S 27°57' E 153°25'0 0.0
2017-Dec-02 20:36S 27°57' E 153°25'0 0.0
2017-Dec-02 20:18S 27°57' E 153°25'0 0.0
2017-Dec-02 20:00S 27°57' E 153°25'0 0.0
2017-Dec-02 19:30S 27°57' E 153°25'0 0.0
2017-Dec-02 19:00S 27°57' E 153°25'0 0.0
2017-Dec-02 18:30S 27°57' E 153°25'0 0.0
2017-Dec-02 18:00S 27°57' E 153°25'0 0.0
2017-Dec-02 17:26S 27°57' E 153°25'0 0.0
2017-Dec-02 16:50S 27°57' E 153°25'0 0.0
2017-Dec-02 16:20S 27°57' E 153°25'0 0.0
2017-Dec-02 15:56S 27°57' E 153°25'0 0.0
2017-Dec-02 15:26S 27°57' E 153°25'0 0.0
2017-Dec-02 14:56S 27°57' E 153°25'0 0.0
2017-Dec-02 14:20S 27°57' E 153°25'0 0.0
2017-Dec-02 13:56S 27°57' E 153°25'0 0.0
2017-Dec-02 13:26S 27°57' E 153°25'0 0.0
2017-Dec-02 12:50S 27°57' E 153°25'0 0.0
2017-Dec-02 12:20S 27°57' E 153°25'0 0.0
2017-Dec-02 11:56S 27°57' E 153°25'0 0.0
2017-Dec-02 11:14S 27°57' E 153°25'0 0.0
2017-Dec-02 10:56S 27°57' E 153°25'0 0.0
2017-Dec-02 10:20S 27°57' E 153°25'0 0.0
2017-Dec-02 09:56S 27°57' E 153°25'0 0.0
2017-Dec-02 09:14S 27°57' E 153°25'0 0.0
2017-Dec-02 08:56S 27°57' E 153°25'0 0.0
2017-Dec-02 07:50S 27°57' E 153°25'0 0.0
2017-Dec-02 07:26S 27°57' E 153°25'0 0.2
2017-Dec-02 07:00S 27°57' E 153°25'1 2.8
2017-Dec-02 06:30S 27°56' E 153°25'2 4.6
2017-Dec-02 06:00S 27°53' E 153°25'3 5.9
2017-Dec-02 05:30S 27°50' E 153°24'3 5.9
2017-Dec-02 05:00S 27°48' E 153°25'2 3.8
2017-Dec-02 04:30S 27°47' E 153°23'3 5.1
2017-Dec-02 04:00S 27°45' E 153°21'3 6.2
2017-Dec-02 03:30S 27°42' E 153°22'3 5.9
2017-Dec-02 03:00S 27°39' E 153°21'2 4.4
2017-Dec-02 02:30S 27°37' E 153°19'8 0.2
2017-Nov-30 01:47S 27°30' E 153°17'2 8.3
2017-Nov-30 01:30S 27°32' E 153°19'4 7.3
2017-Nov-30 01:00S 27°35' E 153°21'0 0.3
2017-Nov-29 23:44S 27°35' E 153°21'0 0.0
2017-Nov-29 23:29S 27°35' E 153°21'0 0.0
2017-Nov-29 22:59S 27°35' E 153°21'0 0.1
2017-Nov-29 22:26S 27°35' E 153°21'0 0.0
2017-Nov-29 21:56S 27°35' E 153°21'0 0.0
2017-Nov-29 21:29S 27°35' E 153°21'0 0.0
2017-Nov-29 20:59S 27°35' E 153°21'0 0.0
2017-Nov-29 20:17S 27°35' E 153°21'0 0.0
2017-Nov-29 19:53S 27°35' E 153°21'0 0.0
2017-Nov-29 19:23S 27°35' E 153°21'0 0.0
2017-Nov-29 18:59S 27°35' E 153°21'0 0.0
2017-Nov-29 18:29S 27°35' E 153°21'0 0.0
2017-Nov-29 17:56S 27°35' E 153°21'0 0.0
2017-Nov-29 17:29S 27°35' E 153°21'0 0.0
2017-Nov-29 16:59S 27°35' E 153°21'0 0.0
2017-Nov-29 16:29S 27°35' E 153°21'0 0.0
2017-Nov-29 15:59S 27°35' E 153°21'0 0.0
2017-Nov-29 15:29S 27°35' E 153°21'0 0.0
2017-Nov-29 14:59S 27°35' E 153°21'0 0.0
2017-Nov-29 14:29S 27°35' E 153°21'0 0.1
2017-Nov-29 13:53S 27°35' E 153°21'0 0.0
2017-Nov-29 13:29S 27°35' E 153°21'0 0.0
2017-Nov-29 12:50S 27°35' E 153°21'0 0.0
2017-Nov-29 12:29S 27°35' E 153°21'0 0.0
2017-Nov-29 11:56S 27°35' E 153°21'0 0.0
2017-Nov-29 11:26S 27°35' E 153°21'0 0.0
2017-Nov-29 10:58S 27°35' E 153°21'0 0.0
2017-Nov-29 10:28S 27°35' E 153°21'0 0.0
2017-Nov-29 09:58S 27°35' E 153°21'0 0.0
2017-Nov-29 09:25S 27°35' E 153°21'0 0.1
2017-Nov-29 08:52S 27°35' E 153°21'0 0.0
2017-Nov-29 08:22S 27°35' E 153°21'0 0.0
2017-Nov-29 07:49S 27°35' E 153°21'0 0.0
2017-Nov-29 07:16S 27°35' E 153°21'0 0.0
2017-Nov-29 06:58S 27°35' E 153°21'0 0.0
2017-Nov-29 06:22S 27°35' E 153°21'0 0.0
2017-Nov-29 05:52S 27°35' E 153°21'0 0.0
2017-Nov-29 05:10S 27°35' E 153°21'0 0.0
2017-Nov-29 04:58S 27°35' E 153°21'0 0.0
2017-Nov-29 04:28S 27°35' E 153°21'0 0.0
2017-Nov-29 03:55S 27°35' E 153°21'0 0.0
2017-Nov-29 03:28S 27°35' E 153°21'0 0.0
2017-Nov-29 02:58S 27°35' E 153°21'0 0.0
2017-Nov-29 02:25S 27°35' E 153°21'0 0.0
2017-Nov-29 01:58S 27°35' E 153°21'0 0.0
2017-Nov-29 01:28S 27°35' E 153°21'0 0.0
2017-Nov-29 00:58S 27°35' E 153°21'0 0.0
2017-Nov-29 00:25S 27°35' E 153°21'0 0.1
2017-Nov-28 23:49S 27°35' E 153°21'0 0.0
2017-Nov-28 23:28S 27°35' E 153°21'0 0.0
2017-Nov-28 22:55S 27°35' E 153°21'0 0.0
2017-Nov-28 22:22S 27°35' E 153°21'0 0.0
2017-Nov-28 21:55S 27°35' E 153°21'0 0.1
2017-Nov-28 21:28S 27°35' E 153°21'0 0.0
2017-Nov-28 20:58S 27°35' E 153°21'0 0.0
2017-Nov-28 20:25S 27°35' E 153°21'0 0.0
2017-Nov-28 19:52S 27°35' E 153°21'0 0.0
2017-Nov-28 19:28S 27°35' E 153°21'0 0.0
2017-Nov-28 18:55S 27°35' E 153°21'0 0.0
2017-Nov-28 18:28S 27°35' E 153°21'0 0.0
2017-Nov-28 17:58S 27°35' E 153°21'0 0.0
2017-Nov-28 17:28S 27°35' E 153°21'0 0.0
2017-Nov-28 16:58S 27°35' E 153°21'0 0.0
2017-Nov-28 16:28S 27°35' E 153°21'0 0.0
2017-Nov-28 15:58S 27°35' E 153°21'0 0.0
2017-Nov-28 14:58S 27°35' E 153°21'0 0.0
2017-Nov-28 14:25S 27°35' E 153°21'0 0.1
2017-Nov-28 13:58S 27°35' E 153°21'0 0.0
2017-Nov-28 13:22S 27°35' E 153°21'0 0.0
2017-Nov-28 12:49S 27°35' E 153°21'0 0.0
2017-Nov-28 12:28S 27°35' E 153°21'0 0.0
2017-Nov-28 11:19S 27°35' E 153°21'0 0.0
2017-Nov-28 07:34S 27°35' E 153°21'0 0.1
2017-Nov-28 07:28S 27°35' E 153°21'0 0.0
2017-Nov-28 06:58S 27°35' E 153°21'0 0.0
2017-Nov-28 06:28S 27°35' E 153°21'0 0.0
2017-Nov-28 05:58S 27°35' E 153°21'0 0.1
2017-Nov-28 05:30S 27°35' E 153°21'3 2.9
2017-Nov-28 04:30S 27°38' E 153°20'2 4.0
2017-Nov-28 04:00S 27°40' E 153°22'3 5.3
2017-Nov-28 03:30S 27°42' E 153°22'3 5.3
2017-Nov-28 03:00S 27°45' E 153°21'2 4.9
2017-Nov-28 02:30S 27°47' E 153°23'2 3.9
2017-Nov-28 02:00S 27°48' E 153°25'3 5.6
2017-Nov-28 01:30S 27°51' E 153°24'2 4.3
2017-Nov-28 01:00S 27°53' E 153°24'0 0.4
2017-Nov-28 00:29S 27°53' E 153°24'0 0.0
2017-Nov-27 23:59S 27°53' E 153°24'0 0.0
2017-Nov-27 23:29S 27°53' E 153°24'0 0.0
2017-Nov-27 22:59S 27°53' E 153°24'0 0.0
2017-Nov-27 22:29S 27°53' E 153°24'0 0.0
2017-Nov-27 21:59S 27°53' E 153°24'0 0.0
2017-Nov-27 21:26S 27°53' E 153°24'0 0.0
2017-Nov-27 20:59S 27°53' E 153°24'0 0.0
2017-Nov-27 20:29S 27°53' E 153°24'0 0.0
2017-Nov-27 19:56S 27°53' E 153°24'0 0.0
2017-Nov-27 19:29S 27°53' E 153°24'0 0.0
2017-Nov-27 18:59S 27°53' E 153°24'0 0.0
2017-Nov-27 18:29S 27°53' E 153°24'0 0.0
2017-Nov-27 17:59S 27°53' E 153°24'0 0.0
2017-Nov-27 17:29S 27°53' E 153°24'0 0.0
2017-Nov-27 16:59S 27°53' E 153°24'0 0.0
2017-Nov-27 16:29S 27°53' E 153°24'0 0.0
2017-Nov-27 15:59S 27°53' E 153°24'0 0.0
2017-Nov-27 15:26S 27°53' E 153°24'0 0.0
2017-Nov-27 14:59S 27°53' E 153°24'0 0.0
2017-Nov-27 14:26S 27°53' E 153°24'0 0.0
2017-Nov-27 13:59S 27°53' E 153°24'0 0.0
2017-Nov-27 13:29S 27°53' E 153°24'0 0.0
2017-Nov-27 12:56S 27°53' E 153°24'0 0.0
2017-Nov-27 12:29S 27°53' E 153°24'0 0.0
2017-Nov-27 11:59S 27°53' E 153°24'0 0.0
2017-Nov-27 11:29S 27°53' E 153°24'0 0.0
2017-Nov-27 10:59S 27°53' E 153°24'0 0.0
2017-Nov-27 10:29S 27°53' E 153°24'0 0.0
2017-Nov-27 09:59S 27°53' E 153°24'0 0.0
2017-Nov-27 09:29S 27°53' E 153°24'0 0.0
2017-Nov-27 08:59S 27°53' E 153°24'0 0.0
2017-Nov-27 08:29S 27°53' E 153°24'0 0.0
2017-Nov-27 07:59S 27°53' E 153°24'0 0.0
2017-Nov-27 07:29S 27°53' E 153°24'0 0.0
2017-Nov-27 06:59S 27°53' E 153°24'0 0.0
2017-Nov-27 06:29S 27°53' E 153°24'0 0.0
2017-Nov-27 05:59S 27°53' E 153°24'0 0.0
2017-Nov-27 05:29S 27°53' E 153°24'0 0.0
2017-Nov-27 04:59S 27°53' E 153°24'0 0.0
2017-Nov-27 04:29S 27°53' E 153°24'0 0.0
2017-Nov-27 03:59S 27°53' E 153°24'0 0.0
2017-Nov-27 03:29S 27°53' E 153°24'0 0.0
2017-Nov-27 02:59S 27°53' E 153°24'0 0.0
2017-Nov-27 02:29S 27°53' E 153°24'0 0.0
2017-Nov-27 01:59S 27°53' E 153°24'0 0.0
2017-Nov-27 01:26S 27°53' E 153°24'0 0.0
2017-Nov-27 00:59S 27°53' E 153°24'0 0.0
2017-Nov-27 00:29S 27°53' E 153°24'0 0.0
2017-Nov-26 23:59S 27°53' E 153°24'0 0.0
2017-Nov-26 23:29S 27°53' E 153°24'0 0.0
2017-Nov-26 22:59S 27°53' E 153°24'0 0.0
2017-Nov-26 22:29S 27°53' E 153°24'0 0.0
2017-Nov-26 21:59S 27°53' E 153°24'0 0.0
2017-Nov-26 21:26S 27°53' E 153°24'0 0.0
2017-Nov-26 20:59S 27°53' E 153°24'0 0.0
2017-Nov-26 20:29S 27°53' E 153°24'0 0.0
2017-Nov-26 19:59S 27°53' E 153°24'0 0.0
2017-Nov-26 19:29S 27°53' E 153°24'0 0.0
2017-Nov-26 18:59S 27°53' E 153°24'0 0.0
2017-Nov-26 18:29S 27°53' E 153°24'0 0.0
2017-Nov-26 17:59S 27°53' E 153°24'0 0.0
2017-Nov-26 17:29S 27°53' E 153°24'0 0.0
2017-Nov-26 16:59S 27°53' E 153°24'0 0.0
2017-Nov-26 16:29S 27°53' E 153°24'0 0.0
2017-Nov-26 15:59S 27°53' E 153°24'0 0.0
2017-Nov-26 15:29S 27°53' E 153°24'0 0.0
2017-Nov-26 14:59S 27°53' E 153°24'0 0.0
2017-Nov-26 14:29S 27°53' E 153°24'0 0.0
2017-Nov-26 13:59S 27°53' E 153°24'0 0.0
2017-Nov-26 13:29S 27°53' E 153°24'0 0.0
2017-Nov-26 12:59S 27°53' E 153°24'0 0.0
2017-Nov-26 12:29S 27°53' E 153°24'0 0.0
2017-Nov-26 11:59S 27°53' E 153°24'0 0.0
2017-Nov-26 11:29S 27°53' E 153°24'0 0.0
2017-Nov-26 10:59S 27°53' E 153°24'0 0.0
2017-Nov-26 10:29S 27°53' E 153°24'0 0.0
2017-Nov-26 09:59S 27°53' E 153°24'0 0.0
2017-Nov-26 09:29S 27°53' E 153°24'0 0.0
2017-Nov-26 08:59S 27°53' E 153°24'0 0.0
2017-Nov-26 08:29S 27°53' E 153°24'0 0.0
2017-Nov-26 07:59S 27°53' E 153°24'0 0.0
2017-Nov-26 07:29S 27°53' E 153°24'0 0.0
2017-Nov-26 06:59S 27°53' E 153°24'0 0.0
2017-Nov-26 06:29S 27°53' E 153°24'0 0.0
2017-Nov-26 05:59S 27°53' E 153°24'0 0.0
2017-Nov-26 05:29S 27°53' E 153°24'0 0.0
2017-Nov-26 04:59S 27°53' E 153°24'0 0.0
2017-Nov-26 04:29S 27°53' E 153°24'0 0.0
2017-Nov-26 03:59S 27°53' E 153°24'0 0.0
2017-Nov-26 03:29S 27°53' E 153°24'0 0.0
2017-Nov-26 02:59S 27°53' E 153°24'0 0.0
2017-Nov-26 02:29S 27°53' E 153°24'0 0.0
2017-Nov-26 01:59S 27°53' E 153°24'0 0.0
2017-Nov-26 01:29S 27°53' E 153°24'0 0.1
2017-Nov-26 01:00S 27°53' E 153°24'0 0.1
2017-Nov-26 00:30S 27°53' E 153°24'0 0.0
2017-Nov-26 00:00S 27°53' E 153°24'0 0.0
2017-Nov-25 23:30S 27°53' E 153°24'0 0.0
2017-Nov-25 23:00S 27°53' E 153°24'0 0.0
2017-Nov-25 22:30S 27°53' E 153°24'0 0.0
2017-Nov-25 22:00S 27°53' E 153°24'0 0.0
2017-Nov-25 21:30S 27°53' E 153°24'0 0.0
2017-Nov-25 21:00S 27°53' E 153°24'0 0.0
2017-Nov-25 20:30S 27°53' E 153°24'0 0.0
2017-Nov-25 20:00S 27°53' E 153°24'0 0.0
2017-Nov-25 19:30S 27°53' E 153°24'0 0.0
2017-Nov-25 18:59S 27°53' E 153°24'0 0.0
2017-Nov-25 18:30S 27°53' E 153°24'0 0.0
2017-Nov-25 18:00S 27°53' E 153°24'0 0.0
2017-Nov-25 17:30S 27°53' E 153°24'0 0.0
2017-Nov-25 16:59S 27°53' E 153°24'0 0.0
2017-Nov-25 16:30S 27°53' E 153°24'0 0.0
2017-Nov-25 15:56S 27°53' E 153°24'0 0.0
2017-Nov-25 15:26S 27°53' E 153°24'0 0.0
2017-Nov-25 15:00S 27°53' E 153°24'0 0.0
2017-Nov-25 14:29S 27°53' E 153°24'0 0.0
2017-Nov-25 13:59S 27°53' E 153°24'0 0.0
2017-Nov-25 13:30S 27°53' E 153°24'0 0.0
2017-Nov-25 13:00S 27°53' E 153°24'0 0.0
2017-Nov-25 12:30S 27°53' E 153°24'0 0.0
2017-Nov-25 12:00S 27°53' E 153°24'0 0.0
2017-Nov-25 11:29S 27°53' E 153°24'0 0.0
2017-Nov-25 10:57S 27°53' E 153°24'0 0.0
2017-Nov-25 10:29S 27°53' E 153°24'0 0.0
2017-Nov-25 10:00S 27°53' E 153°24'0 0.0
2017-Nov-25 09:29S 27°53' E 153°24'0 0.0
2017-Nov-25 08:59S 27°53' E 153°24'0 0.0
2017-Nov-25 08:30S 27°53' E 153°24'0 0.0
2017-Nov-25 08:00S 27°53' E 153°24'0 0.0
2017-Nov-25 07:29S 27°53' E 153°24'0 0.0
2017-Nov-25 07:00S 27°53' E 153°24'0 0.0
2017-Nov-25 06:30S 27°53' E 153°24'0 0.0
2017-Nov-25 06:00S 27°53' E 153°24'0 0.0
2017-Nov-25 05:30S 27°53' E 153°24'0 0.0
2017-Nov-25 04:59S 27°53' E 153°24'0 0.6
2017-Nov-25 04:30S 27°53' E 153°24'2 4.5
2017-Nov-25 04:00S 27°55' E 153°25'0 0.3
2017-Nov-25 03:30S 27°55' E 153°25'0 0.0
2017-Nov-25 03:00S 27°55' E 153°25'0 0.0
2017-Nov-25 02:30S 27°55' E 153°25'1 1.3
2017-Nov-25 02:00S 27°55' E 153°25'2 3.0
2017-Nov-25 01:28S 27°57' E 153°25'0 0.0
2017-Nov-25 00:58S 27°57' E 153°25'0 0.0
2017-Nov-25 00:25S 27°57' E 153°25'0 0.0
2017-Nov-24 23:55S 27°57' E 153°25'0 0.0
2017-Nov-24 23:28S 27°57' E 153°25'0 0.0
2017-Nov-24 22:58S 27°57' E 153°25'0 0.0
2017-Nov-24 22:28S 27°57' E 153°25'0 0.0
2017-Nov-24 21:55S 27°57' E 153°25'0 0.0
2017-Nov-24 21:28S 27°57' E 153°25'0 0.0
2017-Nov-24 20:58S 27°57' E 153°25'0 0.0
2017-Nov-24 20:28S 27°57' E 153°25'0 0.0
2017-Nov-24 19:55S 27°57' E 153°25'0 0.0
2017-Nov-24 19:28S 27°57' E 153°25'0 0.0
2017-Nov-24 18:58S 27°57' E 153°25'0 0.0
2017-Nov-24 18:22S 27°57' E 153°25'0 0.0
2017-Nov-24 17:58S 27°57' E 153°25'0 0.0
2017-Nov-24 17:28S 27°57' E 153°25'0 0.0
2017-Nov-24 16:58S 27°57' E 153°25'0 0.0
2017-Nov-24 16:28S 27°57' E 153°25'0 0.0
2017-Nov-24 15:58S 27°57' E 153°25'0 0.0
2017-Nov-24 15:28S 27°57' E 153°25'0 0.0
2017-Nov-24 14:55S 27°57' E 153°25'0 0.0
2017-Nov-24 14:22S 27°57' E 153°25'0 0.0
2017-Nov-24 13:58S 27°57' E 153°25'0 0.0
2017-Nov-24 13:16S 27°57' E 153°25'0 0.0
2017-Nov-24 12:25S 27°57' E 153°25'0 0.0
2017-Nov-24 11:58S 27°57' E 153°25'0 0.0
2017-Nov-24 11:28S 27°57' E 153°25'0 0.0
2017-Nov-24 10:58S 27°57' E 153°25'0 0.0
2017-Nov-24 10:28S 27°57' E 153°25'0 0.0
2017-Nov-24 09:58S 27°57' E 153°25'0 0.0
2017-Nov-24 09:28S 27°57' E 153°25'0 0.0
2017-Nov-24 08:58S 27°57' E 153°25'0 0.0
2017-Nov-24 08:25S 27°57' E 153°25'0 0.0
2017-Nov-24 07:58S 27°57' E 153°25'0 0.0
2017-Nov-24 07:28S 27°57' E 153°25'0 0.0
2017-Nov-24 06:52S 27°57' E 153°25'0 0.0
2017-Nov-24 06:22S 27°57' E 153°25'0 0.0
2017-Nov-24 05:58S 27°57' E 153°25'0 0.0
2017-Nov-24 05:28S 27°57' E 153°25'0 0.0
2017-Nov-24 04:58S 27°57' E 153°25'0 0.0
2017-Nov-24 04:28S 27°57' E 153°25'0 0.0
2017-Nov-24 03:58S 27°57' E 153°25'0 0.0
2017-Nov-24 03:28S 27°57' E 153°25'0 0.0
2017-Nov-24 02:58S 27°57' E 153°25'0 0.0
2017-Nov-24 02:28S 27°57' E 153°25'0 0.0
2017-Nov-24 01:58S 27°57' E 153°25'0 0.0
2017-Nov-24 01:28S 27°57' E 153°25'0 0.0
2017-Nov-24 00:58S 27°57' E 153°25'0 0.0
2017-Nov-24 00:28S 27°57' E 153°25'0 0.0
2017-Nov-23 23:58S 27°57' E 153°25'0 0.0
2017-Nov-23 23:25S 27°57' E 153°25'0 0.0
2017-Nov-23 22:58S 27°57' E 153°25'0 0.0
2017-Nov-23 22:28S 27°57' E 153°25'0 0.0
2017-Nov-23 21:58S 27°57' E 153°25'0 0.0
2017-Nov-23 21:28S 27°57' E 153°25'0 0.0
2017-Nov-23 20:58S 27°57' E 153°25'0 0.0
2017-Nov-23 20:28S 27°57' E 153°25'0 0.0
2017-Nov-23 19:58S 27°57' E 153°25'0 0.0
2017-Nov-23 19:28S 27°57' E 153°25'0 0.0
2017-Nov-23 18:58S 27°57' E 153°25'0 0.0
2017-Nov-23 18:28S 27°57' E 153°25'0 0.0
2017-Nov-23 17:58S 27°57' E 153°25'0 0.0
2017-Nov-23 17:28S 27°57' E 153°25'0 0.0
2017-Nov-23 16:58S 27°57' E 153°25'0 0.0
2017-Nov-23 16:28S 27°57' E 153°25'0 0.0
2017-Nov-23 15:58S 27°57' E 153°25'0 0.0
2017-Nov-23 15:28S 27°57' E 153°25'0 0.0
2017-Nov-23 14:58S 27°57' E 153°25'0 0.0
2017-Nov-23 14:28S 27°57' E 153°25'0 0.0
2017-Nov-23 13:58S 27°57' E 153°25'0 0.0
2017-Nov-23 13:25S 27°57' E 153°25'0 0.0
2017-Nov-23 12:58S 27°57' E 153°25'0 0.0
2017-Nov-23 12:25S 27°57' E 153°25'0 0.0
2017-Nov-23 11:58S 27°57' E 153°25'  
Track history (hours):
 
Tides and Currents Weather Stations Pressure Air Temp Water Temp Dewpoint Dewpoint Depression Visibility Wind Speed Wind Dir Waves Ship Positions

Hurtle Turtle

Last reported at 2017-Dec-03 11:48 UTC. Time now 2017-Dec-12 12:41 UTC.
Position S 28°29' E 153°43'.
Warning: this ship's position is 9 days out of date.

Length 12 m.

MMSI: 503028550.

Date/timePositionNaut miles runAvg speedWind from/ knotsBaromVisibWave heightAir tempDewpointWater temp
2017-Dec-03 11:48S 28°29' E 153°43'2 7.8
2017-Dec-03 11:29S 28°27' E 153°43'4 7.3
2017-Dec-03 10:59S 28°23' E 153°42'4 7.3
2017-Dec-03 10:29S 28°20' E 153°41'4 7.3
2017-Dec-03 10:00S 28°16' E 153°40'3 6.9
2017-Dec-03 09:30S 28°13' E 153°40'3 6.0
2017-Dec-03 09:00S 28°10' E 153°39'4 7.2
2017-Dec-03 08:31S 28°07' E 153°36'4 8.4
2017-Dec-03 08:00S 28°04' E 153°33'4 8.5
2017-Dec-03 07:30S 28°00' E 153°30'4 8.4
2017-Dec-03 07:00S 27°57' E 153°28'2 4.5
2017-Dec-03 06:30S 27°56' E 153°25'1 1.1
2017-Dec-03 06:00S 27°57' E 153°25'0 0.0
2017-Dec-03 05:30S 27°57' E 153°25'0 0.0
2017-Dec-03 05:00S 27°57' E 153°25'0 0.0
2017-Dec-03 04:30S 27°57' E 153°25'0 0.0
2017-Dec-03 03:48S 27°57' E 153°25'0 0.0
2017-Dec-03 03:30S 27°57' E 153°25'0 0.0
2017-Dec-03 03:00S 27°57' E 153°25'0 0.0
2017-Dec-03 02:24S 27°57' E 153°25'0 0.0
2017-Dec-03 02:00S 27°57' E 153°25'0 0.0
2017-Dec-03 01:30S 27°57' E 153°25'0 0.0
2017-Dec-03 01:00S 27°57' E 153°25'0 0.0
2017-Dec-03 00:30S 27°57' E 153°25'0 0.0
2017-Dec-03 00:00S 27°57' E 153°25'0 0.0
2017-Dec-02 23:24S 27°57' E 153°25'0 0.0
2017-Dec-02 23:00S 27°57' E 153°25'0 0.0
2017-Dec-02 22:30S 27°57' E 153°25'0 0.0
2017-Dec-02 22:00S 27°57' E 153°25'0 0.0
2017-Dec-02 21:30S 27°57' E 153°25'0 0.0
2017-Dec-02 20:36S 27°57' E 153°25'0 0.0
2017-Dec-02 20:18S 27°57' E 153°25'0 0.0
2017-Dec-02 20:00S 27°57' E 153°25'0 0.0
2017-Dec-02 19:30S 27°57' E 153°25'0 0.0
2017-Dec-02 19:00S 27°57' E 153°25'0 0.0
2017-Dec-02 18:30S 27°57' E 153°25'0 0.0
2017-Dec-02 18:00S 27°57' E 153°25'0 0.0
2017-Dec-02 17:26S 27°57' E 153°25'0 0.0
2017-Dec-02 16:50S 27°57' E 153°25'0 0.0
2017-Dec-02 16:20S 27°57' E 153°25'0 0.0
2017-Dec-02 15:56S 27°57' E 153°25'0 0.0
2017-Dec-02 15:26S 27°57' E 153°25'0 0.0
2017-Dec-02 14:56S 27°57' E 153°25'0 0.0
2017-Dec-02 14:20S 27°57' E 153°25'0 0.0
2017-Dec-02 13:56S 27°57' E 153°25'0 0.0
2017-Dec-02 13:26S 27°57' E 153°25'0 0.0
2017-Dec-02 12:50S 27°57' E 153°25'0 0.0
2017-Dec-02 12:20S 27°57' E 153°25'0 0.0
2017-Dec-02 11:56S 27°57' E 153°25'0 0.0
2017-Dec-02 11:14S 27°57' E 153°25'0 0.0
2017-Dec-02 10:56S 27°57' E 153°25'0 0.0
2017-Dec-02 10:20S 27°57' E 153°25'0 0.0
2017-Dec-02 09:56S 27°57' E 153°25'0 0.0
2017-Dec-02 09:14S 27°57' E 153°25'0 0.0
2017-Dec-02 08:56S 27°57' E 153°25'0 0.0
2017-Dec-02 07:50S 27°57' E 153°25'0 0.0
2017-Dec-02 07:26S 27°57' E 153°25'0 0.2
2017-Dec-02 07:00S 27°57' E 153°25'1 2.8
2017-Dec-02 06:30S 27°56' E 153°25'2 4.6
2017-Dec-02 06:00S 27°53' E 153°25'3 5.9
2017-Dec-02 05:30S 27°50' E 153°24'3 5.9
2017-Dec-02 05:00S 27°48' E 153°25'2 3.8
2017-Dec-02 04:30S 27°47' E 153°23'3 5.1
2017-Dec-02 04:00S 27°45' E 153°21'3 6.2
2017-Dec-02 03:30S 27°42' E 153°22'3 5.9
2017-Dec-02 03:00S 27°39' E 153°21'2 4.4
2017-Dec-02 02:30S 27°37' E 153°19'8 0.2
2017-Nov-30 01:47S 27°30' E 153°17'2 8.3
2017-Nov-30 01:30S 27°32' E 153°19'4 7.3
2017-Nov-30 01:00S 27°35' E 153°21'0 0.3
2017-Nov-29 23:44S 27°35' E 153°21'0 0.0
2017-Nov-29 23:29S 27°35' E 153°21'0 0.0
2017-Nov-29 22:59S 27°35' E 153°21'0 0.1
2017-Nov-29 22:26S 27°35' E 153°21'0 0.0
2017-Nov-29 21:56S 27°35' E 153°21'0 0.0
2017-Nov-29 21:29S 27°35' E 153°21'0 0.0
2017-Nov-29 20:59S 27°35' E 153°21'0 0.0
2017-Nov-29 20:17S 27°35' E 153°21'0 0.0
2017-Nov-29 19:53S 27°35' E 153°21'0 0.0
2017-Nov-29 19:23S 27°35' E 153°21'0 0.0
2017-Nov-29 18:59S 27°35' E 153°21'0 0.0
2017-Nov-29 18:29S 27°35' E 153°21'0 0.0
2017-Nov-29 17:56S 27°35' E 153°21'0 0.0
2017-Nov-29 17:29S 27°35' E 153°21'0 0.0
2017-Nov-29 16:59S 27°35' E 153°21'0 0.0
2017-Nov-29 16:29S 27°35' E 153°21'0 0.0
2017-Nov-29 15:59S 27°35' E 153°21'0 0.0
2017-Nov-29 15:29S 27°35' E 153°21'0 0.0
2017-Nov-29 14:59S 27°35' E 153°21'0 0.0
2017-Nov-29 14:29S 27°35' E 153°21'0 0.1
2017-Nov-29 13:53S 27°35' E 153°21'0 0.0
2017-Nov-29 13:29S 27°35' E 153°21'0 0.0
2017-Nov-29 12:50S 27°35' E 153°21'0 0.0
2017-Nov-29 12:29S 27°35' E 153°21'0 0.0
2017-Nov-29 11:56S 27°35' E 153°21'0 0.0
2017-Nov-29 11:26S 27°35' E 153°21'0 0.0
2017-Nov-29 10:58S 27°35' E 153°21'0 0.0
2017-Nov-29 10:28S 27°35' E 153°21'0 0.0
2017-Nov-29 09:58S 27°35' E 153°21'0 0.0
2017-Nov-29 09:25S 27°35' E 153°21'0 0.1
2017-Nov-29 08:52S 27°35' E 153°21'0 0.0
2017-Nov-29 08:22S 27°35' E 153°21'0 0.0
2017-Nov-29 07:49S 27°35' E 153°21'0 0.0
2017-Nov-29 07:16S 27°35' E 153°21'0 0.0
2017-Nov-29 06:58S 27°35' E 153°21'0 0.0
2017-Nov-29 06:22S 27°35' E 153°21'0 0.0
2017-Nov-29 05:52S 27°35' E 153°21'0 0.0
2017-Nov-29 05:10S 27°35' E 153°21'0 0.0
2017-Nov-29 04:58S 27°35' E 153°21'0 0.0
2017-Nov-29 04:28S 27°35' E 153°21'0 0.0
2017-Nov-29 03:55S 27°35' E 153°21'0 0.0
2017-Nov-29 03:28S 27°35' E 153°21'0 0.0
2017-Nov-29 02:58S 27°35' E 153°21'0 0.0
2017-Nov-29 02:25S 27°35' E 153°21'0 0.0
2017-Nov-29 01:58S 27°35' E 153°21'0 0.0
2017-Nov-29 01:28S 27°35' E 153°21'0 0.0
2017-Nov-29 00:58S 27°35' E 153°21'0 0.0
2017-Nov-29 00:25S 27°35' E 153°21'0 0.1
2017-Nov-28 23:49S 27°35' E 153°21'0 0.0
2017-Nov-28 23:28S 27°35' E 153°21'0 0.0
2017-Nov-28 22:55S 27°35' E 153°21'0 0.0
2017-Nov-28 22:22S 27°35' E 153°21'0 0.0
2017-Nov-28 21:55S 27°35' E 153°21'0 0.1
2017-Nov-28 21:28S 27°35' E 153°21'0 0.0
2017-Nov-28 20:58S 27°35' E 153°21'0 0.0
2017-Nov-28 20:25S 27°35' E 153°21'0 0.0
2017-Nov-28 19:52S 27°35' E 153°21'0 0.0
2017-Nov-28 19:28S 27°35' E 153°21'0 0.0
2017-Nov-28 18:55S 27°35' E 153°21'0 0.0
2017-Nov-28 18:28S 27°35' E 153°21'0 0.0
2017-Nov-28 17:58S 27°35' E 153°21'0 0.0
2017-Nov-28 17:28S 27°35' E 153°21'0 0.0
2017-Nov-28 16:58S 27°35' E 153°21'0 0.0
2017-Nov-28 16:28S 27°35' E 153°21'0 0.0
2017-Nov-28 15:58S 27°35' E 153°21'0 0.0
2017-Nov-28 14:58S 27°35' E 153°21'0 0.0
2017-Nov-28 14:25S 27°35' E 153°21'0 0.1
2017-Nov-28 13:58S 27°35' E 153°21'0 0.0
2017-Nov-28 13:22S 27°35' E 153°21'0 0.0
2017-Nov-28 12:49S 27°35' E 153°21'0 0.0
2017-Nov-28 12:28S 27°35' E 153°21'0 0.0
2017-Nov-28 11:19S 27°35' E 153°21'0 0.0
2017-Nov-28 07:34S 27°35' E 153°21'0 0.1
2017-Nov-28 07:28S 27°35' E 153°21'0 0.0
2017-Nov-28 06:58S 27°35' E 153°21'0 0.0
2017-Nov-28 06:28S 27°35' E 153°21'0 0.0
2017-Nov-28 05:58S 27°35' E 153°21'0 0.1
2017-Nov-28 05:30S 27°35' E 153°21'3 2.9
2017-Nov-28 04:30S 27°38' E 153°20'2 4.0
2017-Nov-28 04:00S 27°40' E 153°22'3 5.3
2017-Nov-28 03:30S 27°42' E 153°22'3 5.3
2017-Nov-28 03:00S 27°45' E 153°21'2 4.9
2017-Nov-28 02:30S 27°47' E 153°23'2 3.9
2017-Nov-28 02:00S 27°48' E 153°25'3 5.6
2017-Nov-28 01:30S 27°51' E 153°24'2 4.3
2017-Nov-28 01:00S 27°53' E 153°24'0 0.4
2017-Nov-28 00:29S 27°53' E 153°24'0 0.0
2017-Nov-27 23:59S 27°53' E 153°24'0 0.0
2017-Nov-27 23:29S 27°53' E 153°24'0 0.0
2017-Nov-27 22:59S 27°53' E 153°24'0 0.0
2017-Nov-27 22:29S 27°53' E 153°24'0 0.0
2017-Nov-27 21:59S 27°53' E 153°24'0 0.0
2017-Nov-27 21:26S 27°53' E 153°24'0 0.0
2017-Nov-27 20:59S 27°53' E 153°24'0 0.0
2017-Nov-27 20:29S 27°53' E 153°24'0 0.0
2017-Nov-27 19:56S 27°53' E 153°24'0 0.0
2017-Nov-27 19:29S 27°53' E 153°24'0 0.0
2017-Nov-27 18:59S 27°53' E 153°24'0 0.0
2017-Nov-27 18:29S 27°53' E 153°24'0 0.0
2017-Nov-27 17:59S 27°53' E 153°24'0 0.0
2017-Nov-27 17:29S 27°53' E 153°24'0 0.0
2017-Nov-27 16:59S 27°53' E 153°24'0 0.0
2017-Nov-27 16:29S 27°53' E 153°24'0 0.0
2017-Nov-27 15:59S 27°53' E 153°24'0 0.0
2017-Nov-27 15:26S 27°53' E 153°24'0 0.0
2017-Nov-27 14:59S 27°53' E 153°24'0 0.0
2017-Nov-27 14:26S 27°53' E 153°24'0 0.0
2017-Nov-27 13:59S 27°53' E 153°24'0 0.0
2017-Nov-27 13:29S 27°53' E 153°24'0 0.0
2017-Nov-27 12:56S 27°53' E 153°24'0 0.0
2017-Nov-27 12:29S 27°53' E 153°24'0 0.0
2017-Nov-27 11:59S 27°53' E 153°24'0 0.0
2017-Nov-27 11:29S 27°53' E 153°24'0 0.0
2017-Nov-27 10:59S 27°53' E 153°24'0 0.0
2017-Nov-27 10:29S 27°53' E 153°24'0 0.0
2017-Nov-27 09:59S 27°53' E 153°24'0 0.0
2017-Nov-27 09:29S 27°53' E 153°24'0 0.0
2017-Nov-27 08:59S 27°53' E 153°24'0 0.0
2017-Nov-27 08:29S 27°53' E 153°24'0 0.0
2017-Nov-27 07:59S 27°53' E 153°24'0 0.0
2017-Nov-27 07:29S 27°53' E 153°24'0 0.0
2017-Nov-27 06:59S 27°53' E 153°24'0 0.0
2017-Nov-27 06:29S 27°53' E 153°24'0 0.0
2017-Nov-27 05:59S 27°53' E 153°24'0 0.0
2017-Nov-27 05:29S 27°53' E 153°24'0 0.0
2017-Nov-27 04:59S 27°53' E 153°24'0 0.0
2017-Nov-27 04:29S 27°53' E 153°24'0 0.0
2017-Nov-27 03:59S 27°53' E 153°24'0 0.0
2017-Nov-27 03:29S 27°53' E 153°24'0 0.0
2017-Nov-27 02:59S 27°53' E 153°24'0 0.0
2017-Nov-27 02:29S 27°53' E 153°24'0 0.0
2017-Nov-27 01:59S 27°53' E 153°24'0 0.0
2017-Nov-27 01:26S 27°53' E 153°24'0 0.0
2017-Nov-27 00:59S 27°53' E 153°24'0 0.0
2017-Nov-27 00:29S 27°53' E 153°24'0 0.0
2017-Nov-26 23:59S 27°53' E 153°24'0 0.0
2017-Nov-26 23:29S 27°53' E 153°24'0 0.0
2017-Nov-26 22:59S 27°53' E 153°24'0 0.0
2017-Nov-26 22:29S 27°53' E 153°24'0 0.0
2017-Nov-26 21:59S 27°53' E 153°24'0 0.0
2017-Nov-26 21:26S 27°53' E 153°24'0 0.0
2017-Nov-26 20:59S 27°53' E 153°24'0 0.0
2017-Nov-26 20:29S 27°53' E 153°24'0 0.0
2017-Nov-26 19:59S 27°53' E 153°24'0 0.0
2017-Nov-26 19:29S 27°53' E 153°24'0 0.0
2017-Nov-26 18:59S 27°53' E 153°24'0 0.0
2017-Nov-26 18:29S 27°53' E 153°24'0 0.0
2017-Nov-26 17:59S 27°53' E 153°24'0 0.0
2017-Nov-26 17:29S 27°53' E 153°24'0 0.0
2017-Nov-26 16:59S 27°53' E 153°24'0 0.0
2017-Nov-26 16:29S 27°53' E 153°24'0 0.0
2017-Nov-26 15:59S 27°53' E 153°24'0 0.0
2017-Nov-26 15:29S 27°53' E 153°24'0 0.0
2017-Nov-26 14:59S 27°53' E 153°24'0 0.0
2017-Nov-26 14:29S 27°53' E 153°24'0 0.0
2017-Nov-26 13:59S 27°53' E 153°24'0 0.0
2017-Nov-26 13:29S 27°53' E 153°24'0 0.0
2017-Nov-26 12:59S 27°53' E 153°24'0 0.0
2017-Nov-26 12:29S 27°53' E 153°24'0 0.0
2017-Nov-26 11:59S 27°53' E 153°24'0 0.0
2017-Nov-26 11:29S 27°53' E 153°24'0 0.0
2017-Nov-26 10:59S 27°53' E 153°24'0 0.0
2017-Nov-26 10:29S 27°53' E 153°24'0 0.0
2017-Nov-26 09:59S 27°53' E 153°24'0 0.0
2017-Nov-26 09:29S 27°53' E 153°24'0 0.0
2017-Nov-26 08:59S 27°53' E 153°24'0 0.0
2017-Nov-26 08:29S 27°53' E 153°24'0 0.0
2017-Nov-26 07:59S 27°53' E 153°24'0 0.0
2017-Nov-26 07:29S 27°53' E 153°24'0 0.0
2017-Nov-26 06:59S 27°53' E 153°24'0 0.0
2017-Nov-26 06:29S 27°53' E 153°24'0 0.0
2017-Nov-26 05:59S 27°53' E 153°24'0 0.0
2017-Nov-26 05:29S 27°53' E 153°24'0 0.0
2017-Nov-26 04:59S 27°53' E 153°24'0 0.0
2017-Nov-26 04:29S 27°53' E 153°24'0 0.0
2017-Nov-26 03:59S 27°53' E 153°24'0 0.0
2017-Nov-26 03:29S 27°53' E 153°24'0 0.0
2017-Nov-26 02:59S 27°53' E 153°24'0 0.0
2017-Nov-26 02:29S 27°53' E 153°24'0 0.0
2017-Nov-26 01:59S 27°53' E 153°24'0 0.0
2017-Nov-26 01:29S 27°53' E 153°24'0 0.1
2017-Nov-26 01:00S 27°53' E 153°24'0 0.1
2017-Nov-26 00:30S 27°53' E 153°24'0 0.0
2017-Nov-26 00:00S 27°53' E 153°24'0 0.0
2017-Nov-25 23:30S 27°53' E 153°24'0 0.0
2017-Nov-25 23:00S 27°53' E 153°24'0 0.0
2017-Nov-25 22:30S 27°53' E 153°24'0 0.0
2017-Nov-25 22:00S 27°53' E 153°24'0 0.0
2017-Nov-25 21:30S 27°53' E 153°24'0 0.0
2017-Nov-25 21:00S 27°53' E 153°24'0 0.0
2017-Nov-25 20:30S 27°53' E 153°24'0 0.0
2017-Nov-25 20:00S 27°53' E 153°24'0 0.0
2017-Nov-25 19:30S 27°53' E 153°24'0 0.0
2017-Nov-25 18:59S 27°53' E 153°24'0 0.0
2017-Nov-25 18:30S 27°53' E 153°24'0 0.0
2017-Nov-25 18:00S 27°53' E 153°24'0 0.0
2017-Nov-25 17:30S 27°53' E 153°24'0 0.0
2017-Nov-25 16:59S 27°53' E 153°24'0 0.0
2017-Nov-25 16:30S 27°53' E 153°24'0 0.0
2017-Nov-25 15:56S 27°53' E 153°24'0 0.0
2017-Nov-25 15:26S 27°53' E 153°24'0 0.0
2017-Nov-25 15:00S 27°53' E 153°24'0 0.0
2017-Nov-25 14:29S 27°53' E 153°24'0 0.0
2017-Nov-25 13:59S 27°53' E 153°24'0 0.0
2017-Nov-25 13:30S 27°53' E 153°24'0 0.0
2017-Nov-25 13:00S 27°53' E 153°24'0 0.0
2017-Nov-25 12:30S 27°53' E 153°24'0 0.0
2017-Nov-25 12:00S 27°53' E 153°24'0 0.0
2017-Nov-25 11:29S 27°53' E 153°24'0 0.0
2017-Nov-25 10:57S 27°53' E 153°24'0 0.0
2017-Nov-25 10:29S 27°53' E 153°24'0 0.0
2017-Nov-25 10:00S 27°53' E 153°24'0 0.0
2017-Nov-25 09:29S 27°53' E 153°24'0 0.0
2017-Nov-25 08:59S 27°53' E 153°24'0 0.0
2017-Nov-25 08:30S 27°53' E 153°24'0 0.0
2017-Nov-25 08:00S 27°53' E 153°24'0 0.0
2017-Nov-25 07:29S 27°53' E 153°24'0 0.0
2017-Nov-25 07:00S 27°53' E 153°24'0 0.0
2017-Nov-25 06:30S 27°53' E 153°24'0 0.0
2017-Nov-25 06:00S 27°53' E 153°24'0 0.0
2017-Nov-25 05:30S 27°53' E 153°24'0 0.0
2017-Nov-25 04:59S 27°53' E 153°24'0 0.6
2017-Nov-25 04:30S 27°53' E 153°24'2 4.5
2017-Nov-25 04:00S 27°55' E 153°25'0 0.3
2017-Nov-25 03:30S 27°55' E 153°25'0 0.0
2017-Nov-25 03:00S 27°55' E 153°25'0 0.0
2017-Nov-25 02:30S 27°55' E 153°25'1 1.3
2017-Nov-25 02:00S 27°55' E 153°25'2 3.0
2017-Nov-25 01:28S 27°57' E 153°25'0 0.0
2017-Nov-25 00:58S 27°57' E 153°25'0 0.0
2017-Nov-25 00:25S 27°57' E 153°25'0 0.0
2017-Nov-24 23:55S 27°57' E 153°25'0 0.0
2017-Nov-24 23:28S 27°57' E 153°25'0 0.0
2017-Nov-24 22:58S 27°57' E 153°25'0 0.0
2017-Nov-24 22:28S 27°57' E 153°25'0 0.0
2017-Nov-24 21:55S 27°57' E 153°25'0 0.0
2017-Nov-24 21:28S 27°57' E 153°25'0 0.0
2017-Nov-24 20:58S 27°57' E 153°25'0 0.0
2017-Nov-24 20:28S 27°57' E 153°25'0 0.0
2017-Nov-24 19:55S 27°57' E 153°25'0 0.0
2017-Nov-24 19:28S 27°57' E 153°25'0 0.0
2017-Nov-24 18:58S 27°57' E 153°25'0 0.0
2017-Nov-24 18:22S 27°57' E 153°25'0 0.0
2017-Nov-24 17:58S 27°57' E 153°25'0 0.0
2017-Nov-24 17:28S 27°57' E 153°25'0 0.0
2017-Nov-24 16:58S 27°57' E 153°25'0 0.0
2017-Nov-24 16:28S 27°57' E 153°25'0 0.0
2017-Nov-24 15:58S 27°57' E 153°25'0 0.0
2017-Nov-24 15:28S 27°57' E 153°25'0 0.0
2017-Nov-24 14:55S 27°57' E 153°25'0 0.0
2017-Nov-24 14:22S 27°57' E 153°25'0 0.0
2017-Nov-24 13:58S 27°57' E 153°25'0 0.0
2017-Nov-24 13:16S 27°57' E 153°25'0 0.0
2017-Nov-24 12:25S 27°57' E 153°25'0 0.0
2017-Nov-24 11:58S 27°57' E 153°25'0 0.0
2017-Nov-24 11:28S 27°57' E 153°25'0 0.0
2017-Nov-24 10:58S 27°57' E 153°25'0 0.0
2017-Nov-24 10:28S 27°57' E 153°25'0 0.0
2017-Nov-24 09:58S 27°57' E 153°25'0 0.0
2017-Nov-24 09:28S 27°57' E 153°25'0 0.0
2017-Nov-24 08:58S 27°57' E 153°25'0 0.0
2017-Nov-24 08:25S 27°57' E 153°25'0 0.0
2017-Nov-24 07:58S 27°57' E 153°25'0 0.0
2017-Nov-24 07:28S 27°57' E 153°25'0 0.0
2017-Nov-24 06:52S 27°57' E 153°25'0 0.0
2017-Nov-24 06:22S 27°57' E 153°25'0 0.0
2017-Nov-24 05:58S 27°57' E 153°25'0 0.0
2017-Nov-24 05:28S 27°57' E 153°25'0 0.0
2017-Nov-24 04:58S 27°57' E 153°25'0 0.0
2017-Nov-24 04:28S 27°57' E 153°25'0 0.0
2017-Nov-24 03:58S 27°57' E 153°25'0 0.0
2017-Nov-24 03:28S 27°57' E 153°25'0 0.0
2017-Nov-24 02:58S 27°57' E 153°25'0 0.0
2017-Nov-24 02:28S 27°57' E 153°25'0 0.0
2017-Nov-24 01:58S 27°57' E 153°25'0 0.0
2017-Nov-24 01:28S 27°57' E 153°25'0 0.0
2017-Nov-24 00:58S 27°57' E 153°25'0 0.0
2017-Nov-24 00:28S 27°57' E 153°25'0 0.0
2017-Nov-23 23:58S 27°57' E 153°25'0 0.0
2017-Nov-23 23:25S 27°57' E 153°25'0 0.0
2017-Nov-23 22:58S 27°57' E 153°25'0 0.0
2017-Nov-23 22:28S 27°57' E 153°25'0 0.0
2017-Nov-23 21:58S 27°57' E 153°25'0 0.0
2017-Nov-23 21:28S 27°57' E 153°25'0 0.0
2017-Nov-23 20:58S 27°57' E 153°25'0 0.0
2017-Nov-23 20:28S 27°57' E 153°25'0 0.0
2017-Nov-23 19:58S 27°57' E 153°25'0 0.0
2017-Nov-23 19:28S 27°57' E 153°25'0 0.0
2017-Nov-23 18:58S 27°57' E 153°25'0 0.0
2017-Nov-23 18:28S 27°57' E 153°25'0 0.0
2017-Nov-23 17:58S 27°57' E 153°25'0 0.0
2017-Nov-23 17:28S 27°57' E 153°25'0 0.0
2017-Nov-23 16:58S 27°57' E 153°25'0 0.0
2017-Nov-23 16:28S 27°57' E 153°25'0 0.0
2017-Nov-23 15:58S 27°57' E 153°25'0 0.0
2017-Nov-23 15:28S 27°57' E 153°25'0 0.0
2017-Nov-23 14:58S 27°57' E 153°25'0 0.0
2017-Nov-23 14:28S 27°57' E 153°25'0 0.0
2017-Nov-23 13:58S 27°57' E 153°25'0 0.0
2017-Nov-23 13:25S 27°57' E 153°25'0 0.0
2017-Nov-23 12:58S 27°57' E 153°25'0 0.0
2017-Nov-23 12:25S 27°57' E 153°25'0 0.0
2017-Nov-23 11:58S 27°57' E 153°25'  

Dump ship's entire track history